MEK weather

Public forecast

Using degrees Celsius for public forecast. Weather courtesy of forecast.io.

Current aviation weather report (METAR) for Bassatine Airport

Retrieved 2020/08/09 08:00 UTC (16 seconds ago):

GMFM 090800Z 06007KT CAVOK 28/19 Q1017 NOSIG

Aviation forecast (TAF) for Bassatine Airport

Retrieved 2020/08/09 06:33 UTC (1 hour ago):

TAF GMFM 090500Z 0906/1012 09004KT CAVOK TEMPO 0910/0914 34010KT 9999 SCT020 BECMG 0914/0918 SCT023 FEW033CB BKN100 BECMG 0918/0922 CAVOK